Time;durP1;ratioP1;P1;durP2;ratioP2;P2;SDS_P1;SDS_P2;PMS_P1;PMS_P2;Temp;Humidity;BMP_temperature;BMP_pressure;BME280_temperature;BME280_humidity;BME280_pressure;Samples;Min_cycle;Max_cycle;Signal;HPM_P1;HPM_P2
2024/03/24 00:01:07;;;;;;;8.20;2.87;;;5.70;99.90;;;;;;5013468;28;20363;-84
2024/03/24 00:03:36;;;;;;;9.40;3.10;;;5.70;99.90;;;;;;5013258;28;20031;-83
2024/03/24 00:06:01;;;;;;;8.20;3.47;;;5.70;99.90;;;;;;5013246;28;20057;-85
2024/03/24 00:08:27;;;;;;;9.60;2.77;;;5.70;99.90;;;;;;5020311;28;20052;-87
2024/03/24 00:10:54;;;;;;;8.97;2.83;;;5.80;99.90;;;;;;5013417;28;20030;-83
2024/03/24 00:13:20;;;;;;;6.53;2.90;;;5.80;99.90;;;;;;5015741;28;20033;-83
2024/03/24 00:15:45;;;;;;;7.90;3.10;;;5.80;99.90;;;;;;5019636;28;20018;-85
2024/03/24 00:18:11;;;;;;;7.17;2.50;;;5.80;99.90;;;;;;5016647;28;20377;-82
2024/03/24 00:20:37;;;;;;;7.20;2.73;;;5.90;99.90;;;;;;5015614;28;20014;-85
2024/03/24 00:23:03;;;;;;;8.53;3.37;;;5.90;99.90;;;;;;5016906;28;20053;-84
2024/03/24 00:25:28;;;;;;;7.67;2.90;;;5.90;99.90;;;;;;5016679;28;20106;-84
2024/03/24 00:27:54;;;;;;;8.07;3.70;;;5.90;99.90;;;;;;5016702;28;20112;-83
2024/03/24 00:30:20;;;;;;;9.23;3.40;;;5.90;99.90;;;;;;5016649;28;20394;-81
2024/03/24 00:32:47;;;;;;;9.23;2.87;;;6.00;99.90;;;;;;5016017;28;20026;-85
2024/03/24 00:35:13;;;;;;;5.37;3.20;;;6.00;99.90;;;;;;5017059;28;20026;-83
2024/03/24 00:37:39;;;;;;;7.73;3.23;;;6.00;99.90;;;;;;5016819;28;20117;-84
2024/03/24 00:40:05;;;;;;;6.67;2.73;;;6.00;99.90;;;;;;5016768;28;20069;-82
2024/03/24 00:42:30;;;;;;;11.33;3.87;;;6.00;99.90;;;;;;5016501;28;20034;-85
2024/03/24 00:44:56;;;;;;;12.17;3.60;;;6.00;99.90;;;;;;5016347;28;20437;-85
2024/03/24 00:47:22;;;;;;;8.37;3.87;;;6.10;99.90;;;;;;5016123;28;20018;-84
2024/03/24 00:49:47;;;;;;;10.57;3.33;;;6.10;99.90;;;;;;5015348;28;20014;-82
2024/03/24 00:52:13;;;;;;;12.83;3.47;;;6.10;99.90;;;;;;5016522;28;20386;-84
2024/03/24 00:54:38;;;;;;;11.23;4.17;;;6.10;99.90;;;;;;5016467;28;20148;-83
2024/03/24 00:57:04;;;;;;;10.17;3.53;;;6.10;99.90;;;;;;5014898;28;20493;-84
2024/03/24 00:59:30;;;;;;;10.83;4.63;;;6.10;99.90;;;;;;5015974;28;20041;-83
2024/03/24 01:01:55;;;;;;;11.33;4.67;;;6.10;99.90;;;;;;5015880;28;20034;-84
2024/03/24 01:04:21;;;;;;;10.73;4.60;;;6.10;99.90;;;;;;5016046;28;20030;-83
2024/03/24 01:06:46;;;;;;;10.40;4.50;;;6.10;99.90;;;;;;5014899;28;20049;-82
2024/03/24 01:09:16;;;;;;;9.90;3.83;;;6.00;99.90;;;;;;5015840;28;20489;-83
2024/03/24 01:11:42;;;;;;;11.17;5.07;;;6.00;99.90;;;;;;5015790;28;20025;-83
2024/03/24 01:14:07;;;;;;;8.43;4.47;;;6.00;99.90;;;;;;5015794;28;20026;-83
2024/03/24 01:16:33;;;;;;;11.73;4.97;;;6.00;99.90;;;;;;5014366;28;20348;-84
2024/03/24 01:18:59;;;;;;;11.70;4.60;;;5.90;99.90;;;;;;5014436;28;20022;-83
2024/03/24 01:21:24;;;;;;;9.77;5.20;;;5.90;99.90;;;;;;5015935;28;20022;-83
2024/03/24 01:23:50;;;;;;;11.07;5.63;;;5.90;99.90;;;;;;5014128;28;20508;-83
2024/03/24 01:26:16;;;;;;;12.73;5.57;;;5.90;99.90;;;;;;5015892;28;20022;-85
2024/03/24 01:28:42;;;;;;;10.00;5.33;;;5.90;99.90;;;;;;5015750;28;20125;-82
2024/03/24 01:31:08;;;;;;;10.80;5.03;;;6.00;99.90;;;;;;5015400;28;20470;-82
2024/03/24 01:33:33;;;;;;;10.53;5.80;;;5.90;99.90;;;;;;5015904;28;20037;-83
2024/03/24 01:35:59;;;;;;;10.30;5.30;;;5.90;99.90;;;;;;5015828;28;20037;-83
2024/03/24 01:38:25;;;;;;;11.33;5.40;;;5.90;99.90;;;;;;5014546;28;20029;-85
2024/03/24 01:40:51;;;;;;;9.73;4.50;;;5.90;99.90;;;;;;5015537;28;20022;-83
2024/03/24 01:43:17;;;;;;;9.67;4.90;;;5.90;99.90;;;;;;5013902;28;20161;-84
2024/03/24 01:45:44;;;;;;;10.57;5.23;;;5.90;99.90;;;;;;5015087;28;20509;-83
2024/03/24 01:48:10;;;;;;;11.40;5.93;;;5.90;99.90;;;;;;5030180;28;20065;-82
2024/03/24 01:50:36;;;;;;;11.23;5.73;;;5.80;99.90;;;;;;5015350;28;20033;-84
2024/03/24 01:53:02;;;;;;;7.90;4.87;;;5.90;99.90;;;;;;5013885;28;20041;-86
2024/03/24 01:55:28;;;;;;;8.47;5.13;;;5.90;99.90;;;;;;5014057;28;20124;-84
2024/03/24 01:57:55;;;;;;;12.50;6.03;;;5.90;99.90;;;;;;5014997;28;20100;-83
2024/03/24 02:00:21;;;;;;;11.17;5.93;;;5.80;99.90;;;;;;5013176;28;20030;-83
2024/03/24 02:02:46;;;;;;;10.47;5.87;;;5.90;99.90;;;;;;5014835;28;20022;-84
2024/03/24 02:05:12;;;;;;;12.53;6.07;;;6.00;99.90;;;;;;5029996;28;20026;-83
2024/03/24 02:07:37;;;;;;;10.23;5.87;;;6.10;99.90;;;;;;5013609;28;20068;-84
2024/03/24 02:10:03;;;;;;;11.07;6.80;;;6.00;99.90;;;;;;5015281;28;20386;-84
2024/03/24 02:12:29;;;;;;;11.47;7.13;;;6.00;99.90;;;;;;5014970;28;20030;-84
2024/03/24 02:14:54;;;;;;;12.33;6.53;;;6.00;99.90;;;;;;5014491;28;20076;-85
2024/03/24 02:17:20;;;;;;;14.57;5.90;;;6.00;99.90;;;;;;5013502;28;20052;-85
2024/03/24 02:19:46;;;;;;;14.10;6.80;;;6.00;99.90;;;;;;5014801;28;20021;-82
2024/03/24 02:22:11;;;;;;;12.43;5.87;;;6.00;99.90;;;;;;5029767;28;20033;-83
2024/03/24 02:24:37;;;;;;;13.07;4.93;;;6.00;99.90;;;;;;5014687;28;20029;-84
2024/03/24 02:27:02;;;;;;;14.13;5.77;;;6.00;99.90;;;;;;5014438;28;20107;-82
2024/03/24 02:29:28;;;;;;;12.40;5.87;;;6.10;99.90;;;;;;5014258;28;20389;-84
2024/03/24 02:31:54;;;;;;;11.57;5.47;;;6.10;99.90;;;;;;5014073;28;20033;-79
2024/03/24 02:34:21;;;;;;;14.97;5.83;;;6.10;99.90;;;;;;5014121;28;20026;-79
2024/03/24 02:36:47;;;;;;;12.00;5.77;;;6.10;99.90;;;;;;5014358;28;20026;-80
2024/03/24 02:39:13;;;;;;;14.87;6.67;;;6.10;99.90;;;;;;5014479;28;20033;-81
2024/03/24 02:41:39;;;;;;;19.47;6.20;;;6.10;99.90;;;;;;5013823;28;20115;-81
2024/03/24 02:44:05;;;;;;;14.73;6.53;;;6.00;99.90;;;;;;5013996;28;20490;-79
2024/03/24 02:46:30;;;;;;;13.17;6.43;;;6.00;99.90;;;;;;5014198;28;20088;-81
2024/03/24 02:48:57;;;;;;;16.30;6.57;;;6.00;99.90;;;;;;5014177;28;20030;-82
2024/03/24 02:51:22;;;;;;;11.47;6.53;;;6.00;99.90;;;;;;5014374;28;20426;-80
2024/03/24 02:53:48;;;;;;;16.57;7.63;;;5.90;99.90;;;;;;5013808;28;20113;-82
2024/03/24 02:56:13;;;;;;;17.13;7.63;;;6.00;99.90;;;;;;5013679;28;20018;-81
2024/03/24 02:58:39;;;;;;;20.97;8.23;;;5.90;99.90;;;;;;5013658;28;20025;-81
2024/03/24 03:01:05;;;;;;;22.57;7.87;;;5.90;99.90;;;;;;5013853;28;20076;-81
2024/03/24 03:03:32;;;;;;;15.77;8.17;;;5.90;99.90;;;;;;5013717;28;20022;-81
2024/03/24 03:05:58;;;;;;;21.23;10.40;;;5.90;99.90;;;;;;5013648;28;20026;-78
2024/03/24 03:08:23;;;;;;;19.10;9.70;;;5.90;99.90;;;;;;5013901;28;20108;-81
2024/03/24 03:10:49;;;;;;;20.20;9.67;;;5.90;99.90;;;;;;5015343;28;20170;-81
2024/03/24 03:13:14;;;;;;;18.97;8.83;;;6.00;99.90;;;;;;5014115;28;20386;-80
2024/03/24 03:15:40;;;;;;;18.30;8.33;;;5.90;99.90;;;;;;5013496;28;20140;-81
2024/03/24 03:18:06;;;;;;;16.63;8.20;;;5.90;99.90;;;;;;5013887;28;20410;-81
2024/03/24 03:20:32;;;;;;;18.93;8.60;;;5.80;99.90;;;;;;5013677;28;20144;-81
2024/03/24 03:22:58;;;;;;;15.63;8.77;;;5.80;99.90;;;;;;5013604;28;20093;-80
2024/03/24 03:25:23;;;;;;;15.63;7.73;;;5.90;99.90;;;;;;5011989;28;20524;-81
2024/03/24 03:27:49;;;;;;;16.80;8.00;;;5.90;99.90;;;;;;5013266;28;20065;-80
2024/03/24 03:30:14;;;;;;;15.30;7.83;;;5.90;99.90;;;;;;5013518;28;20100;-81
2024/03/24 03:32:40;;;;;;;16.67;7.50;;;5.90;99.90;;;;;;5013104;28;20084;-80
2024/03/24 03:35:06;;;;;;;15.77;7.47;;;5.90;99.90;;;;;;5013486;28;20105;-80
2024/03/24 03:37:32;;;;;;;19.83;9.47;;;5.90;99.90;;;;;;5013064;28;20053;-77
2024/03/24 03:39:57;;;;;;;15.77;8.57;;;5.90;99.90;;;;;;5013176;28;20030;-81
2024/03/24 03:42:23;;;;;;;15.53;8.07;;;5.90;99.90;;;;;;5012695;28;20072;-81
2024/03/24 03:44:52;;;;;;;14.50;8.07;;;5.90;99.90;;;;;;5013295;28;20037;-81
2024/03/24 03:47:18;;;;;;;22.17;8.47;;;5.90;99.90;;;;;;5013104;28;20458;-81
2024/03/24 03:49:50;;;;;;;23.20;9.93;;;6.00;99.90;;;;;;5028497;28;20029;-81
2024/03/24 03:52:32;;;;;;;20.20;9.80;;;5.90;99.90;;;;;;5028416;28;20014;-81
2024/03/24 03:55:00;;;;;;;16.43;8.70;;;6.00;99.90;;;;;;5012825;28;20498;-80
2024/03/24 03:57:26;;;;;;;20.50;8.93;;;6.00;99.90;;;;;;5012903;28;20045;-81
2024/03/24 03:59:52;;;;;;;20.70;9.23;;;6.00;99.90;;;;;;5012985;28;20370;-81
2024/03/24 04:02:17;;;;;;;16.70;5.97;;;6.00;99.90;;;;;;5013197;28;20080;-80
2024/03/24 04:04:44;;;;;;;8.00;2.30;;;6.00;99.90;;;;;;5011991;28;20377;-80
2024/03/24 04:07:10;;;;;;;6.50;1.60;;;5.90;99.90;;;;;;5012782;28;20029;-82
2024/03/24 04:09:36;;;;;;;5.60;1.27;;;5.70;99.90;;;;;;5028162;28;20022;-80
2024/03/24 04:12:03;;;;;;;4.93;1.43;;;5.60;99.90;;;;;;5028095;28;20026;-81
2024/03/24 04:14:29;;;;;;;6.23;1.50;;;5.40;99.90;;;;;;5012888;28;20105;-80
2024/03/24 04:16:54;;;;;;;5.83;1.60;;;5.20;99.90;;;;;;5012773;28;20419;-80
2024/03/24 04:19:20;;;;;;;7.90;1.80;;;5.20;99.90;;;;;;5012656;28;20030;-82
2024/03/24 04:21:47;;;;;;;5.80;1.77;;;5.10;99.90;;;;;;5011586;28;20029;-80
2024/03/24 04:24:13;;;;;;;8.73;1.70;;;5.10;99.90;;;;;;5013321;28;20034;-80
2024/03/24 04:26:38;;;;;;;9.60;2.07;;;5.10;99.90;;;;;;5012772;28;20437;-81
2024/03/24 04:29:04;;;;;;;7.77;2.17;;;5.10;99.90;;;;;;5012851;28;20018;-79
2024/03/24 04:31:29;;;;;;;4.90;1.83;;;5.10;99.90;;;;;;5011135;28;20022;-80
2024/03/24 04:33:55;;;;;;;4.03;1.90;;;5.10;99.90;;;;;;5012977;28;20058;-80
2024/03/24 04:36:20;;;;;;;5.13;2.40;;;5.10;99.90;;;;;;5012862;28;20080;-79
2024/03/24 04:38:46;;;;;;;9.50;2.30;;;5.10;99.90;;;;;;5011488;28;20371;-79
2024/03/24 04:41:12;;;;;;;5.60;2.10;;;5.10;99.90;;;;;;5011357;28;20109;-80
2024/03/24 04:43:37;;;;;;;8.70;2.10;;;5.10;99.90;;;;;;5013389;28;20390;-80
2024/03/24 04:46:03;;;;;;;6.13;1.60;;;5.10;99.90;;;;;;5011524;28;20018;-80
2024/03/24 04:48:29;;;;;;;8.40;2.30;;;5.10;99.90;;;;;;5012471;28;20029;-80
2024/03/24 04:50:54;;;;;;;4.80;1.40;;;5.00;99.90;;;;;;5012777;28;20056;-80
2024/03/24 04:53:20;;;;;;;11.50;2.13;;;5.10;99.90;;;;;;5012692;28;20026;-80
2024/03/24 04:55:46;;;;;;;6.33;1.43;;;5.10;99.90;;;;;;5027574;28;20032;-82
2024/03/24 04:58:11;;;;;;;5.97;1.37;;;5.00;99.90;;;;;;5012025;28;20524;-81
2024/03/24 05:00:37;;;;;;;7.10;1.73;;;5.00;99.90;;;;;;5016256;28;20113;-80
2024/03/24 05:03:04;;;;;;;3.83;1.13;;;5.00;99.90;;;;;;5014734;28;20116;-81
2024/03/24 05:05:30;;;;;;;5.63;1.70;;;5.00;99.90;;;;;;5016140;28;20037;-80
2024/03/24 05:07:57;;;;;;;10.60;2.20;;;5.00;99.90;;;;;;5016056;28;20026;-81
2024/03/24 05:10:23;;;;;;;7.90;1.90;;;5.00;99.90;;;;;;5014569;28;20030;-82
2024/03/24 05:12:49;;;;;;;5.40;1.30;;;5.00;99.90;;;;;;5020958;28;20037;-81
2024/03/24 05:15:14;;;;;;;4.27;1.57;;;5.00;99.90;;;;;;5017614;28;20445;-81
2024/03/24 05:17:40;;;;;;;5.67;1.43;;;5.00;99.90;;;;;;5034126;28;20055;-81
2024/03/24 05:20:09;;;;;;;4.20;1.17;;;5.00;99.90;;;;;;5035041;28;20498;-82
2024/03/24 05:22:36;;;;;;;5.47;1.40;;;5.00;99.90;;;;;;5035578;28;20501;-81
2024/03/24 05:25:01;;;;;;;4.27;1.30;;;5.00;99.90;;;;;;5035612;28;20029;-82
2024/03/24 05:27:28;;;;;;;4.70;1.63;;;5.00;99.90;;;;;;5035274;28;20021;-81
2024/03/24 05:29:54;;;;;;;5.30;1.47;;;5.00;99.90;;;;;;5035163;28;20024;-82
2024/03/24 05:32:20;;;;;;;5.90;1.70;;;5.10;99.90;;;;;;5033827;28;20237;-81
2024/03/24 05:34:47;;;;;;;5.07;1.63;;;5.00;99.90;;;;;;5034086;28;20036;-82
2024/03/24 05:37:13;;;;;;;7.87;1.50;;;5.00;99.90;;;;;;5035096;28;20500;-82
2024/03/24 05:39:39;;;;;;;7.27;1.80;;;5.00;99.90;;;;;;5035095;28;20026;-81
2024/03/24 05:42:06;;;;;;;6.77;1.50;;;5.00;99.90;;;;;;5033590;28;20052;-82
2024/03/24 05:44:32;;;;;;;5.33;1.63;;;5.00;99.90;;;;;;5035084;28;20109;-82
2024/03/24 05:46:57;;;;;;;4.97;1.50;;;5.00;99.90;;;;;;5035217;28;20449;-82
2024/03/24 05:49:23;;;;;;;4.20;1.40;;;5.00;99.90;;;;;;5033474;28;20017;-82
2024/03/24 05:51:49;;;;;;;7.87;1.50;;;5.00;99.90;;;;;;5033635;28;20018;-82
2024/03/24 05:54:15;;;;;;;9.30;2.13;;;5.10;99.90;;;;;;5034784;28;20026;-83
2024/03/24 05:56:41;;;;;;;10.93;1.80;;;5.10;99.90;;;;;;5034941;28;20079;-82
2024/03/24 05:59:06;;;;;;;13.97;2.70;;;5.00;99.90;;;;;;5033396;28;20032;-82
2024/03/24 06:01:32;;;;;;;6.47;2.10;;;5.10;99.90;;;;;;5033639;28;20109;-82
2024/03/24 06:03:58;;;;;;;10.90;2.50;;;5.20;99.90;;;;;;5034556;28;20108;-81
2024/03/24 06:06:24;;;;;;;11.50;2.40;;;5.20;99.90;;;;;;5033015;28;20552;-81
2024/03/24 06:08:50;;;;;;;8.23;2.47;;;5.20;99.90;;;;;;5034480;28;20405;-80
2024/03/24 06:11:16;;;;;;;7.33;2.53;;;5.30;99.90;;;;;;5033478;28;20022;-81
2024/03/24 06:13:41;;;;;;;12.20;2.60;;;5.30;99.90;;;;;;5034342;28;20539;-80
2024/03/24 06:16:07;;;;;;;9.27;2.67;;;5.40;99.90;;;;;;5034839;28;20083;-80
2024/03/24 06:18:33;;;;;;;7.33;2.50;;;5.40;99.90;;;;;;5034541;28;20390;-80
2024/03/24 06:21:00;;;;;;;8.30;2.23;;;5.40;99.90;;;;;;5034856;28;20108;-81
2024/03/24 06:23:26;;;;;;;8.03;1.53;;;5.40;99.90;;;;;;5034599;28;20021;-80
2024/03/24 06:25:51;;;;;;;9.50;2.20;;;5.30;99.90;;;;;;5033108;28;20025;-80
2024/03/24 06:28:17;;;;;;;10.20;2.20;;;5.20;99.90;;;;;;5032888;28;20090;-81
2024/03/24 06:30:42;;;;;;;11.70;2.03;;;5.20;99.90;;;;;;5033948;28;20026;-80
2024/03/24 06:33:08;;;;;;;10.43;2.57;;;5.10;99.90;;;;;;5034167;28;20087;-81
2024/03/24 06:35:34;;;;;;;10.20;2.67;;;5.00;99.90;;;;;;5033995;28;20121;-81
2024/03/24 06:38:00;;;;;;;12.00;3.70;;;5.00;99.90;;;;;;5032896;28;20025;-81
2024/03/24 06:40:26;;;;;;;19.60;3.97;;;5.00;99.90;;;;;;5033806;28;20025;-81
2024/03/24 06:43:02;;;;;;;18.43;5.30;;;5.00;99.90;;;;;;5032487;28;20057;-82
2024/03/24 06:45:36;;;;;;;12.60;4.50;;;5.00;99.90;;;;;;5033905;28;20036;-81
2024/03/24 06:48:02;;;;;;;12.82;4.00;;;5.00;99.90;;;;;;5033892;28;20048;-81
2024/03/24 06:50:29;;;;;;;14.53;4.03;;;5.10;99.90;;;;;;5032262;28;20442;-81
2024/03/24 06:52:56;;;;;;;10.67;3.47;;;5.10;99.90;;;;;;5033940;28;20044;-81
2024/03/24 06:55:25;;;;;;;10.97;3.17;;;5.10;99.90;;;;;;5032525;28;20061;-82
2024/03/24 06:57:51;;;;;;;10.40;3.97;;;5.10;99.90;;;;;;5033698;28;20128;-82
2024/03/24 07:00:20;;;;;;;8.60;2.43;;;5.20;99.90;;;;;;5033489;28;20521;-81
2024/03/24 07:02:46;;;;;;;9.80;2.93;;;5.20;99.90;;;;;;5033543;28;20099;-82
2024/03/24 07:05:12;;;;;;;10.23;3.23;;;5.20;99.90;;;;;;5032287;28;20021;-81
2024/03/24 07:07:38;;;;;;;7.73;2.80;;;5.20;99.90;;;;;;5031935;28;20526;-82
2024/03/24 07:10:05;;;;;;;6.63;2.63;;;5.30;99.90;;;;;;5033805;28;20022;-82
2024/03/24 07:12:31;;;;;;;9.87;3.53;;;5.30;99.90;;;;;;5032174;28;20393;-80
2024/03/24 07:14:57;;;;;;;11.00;2.70;;;5.40;99.90;;;;;;5033391;28;20026;-81
2024/03/24 07:17:22;;;;;;;7.13;2.30;;;5.40;99.90;;;;;;5032250;28;20021;-81
2024/03/24 07:19:54;;;;;;;8.40;3.33;;;5.40;99.90;;;;;;5032768;28;20034;-80
2024/03/24 07:22:19;;;;;;;10.80;4.03;;;5.40;99.90;;;;;;5031773;28;20095;-80
2024/03/24 07:24:50;;;;;;;9.43;3.30;;;5.50;99.90;;;;;;5031230;28;20076;-82
2024/03/24 07:27:17;;;;;;;10.80;3.00;;;5.50;99.90;;;;;;5032434;28;20381;-80
2024/03/24 07:29:42;;;;;;;11.07;3.50;;;5.50;99.90;;;;;;5032907;28;20378;-81
2024/03/24 07:32:08;;;;;;;13.17;4.20;;;5.60;99.90;;;;;;5033022;28;20017;-81
2024/03/24 07:34:34;;;;;;;13.37;4.10;;;5.60;99.90;;;;;;5033116;28;20033;-81
2024/03/24 07:37:01;;;;;;;12.53;3.70;;;5.60;99.90;;;;;;5032836;28;20034;-81
2024/03/24 07:39:26;;;;;;;17.53;4.43;;;5.80;99.90;;;;;;5032929;28;20079;-78
2024/03/24 07:41:52;;;;;;;14.97;5.20;;;5.80;99.90;;;;;;5032209;28;20065;-79
2024/03/24 07:44:19;;;;;;;21.90;6.27;;;5.90;99.90;;;;;;5031384;28;20108;-81
2024/03/24 07:46:45;;;;;;;30.27;7.17;;;5.90;99.90;;;;;;5032183;28;20088;-81
2024/03/24 07:49:11;;;;;;;19.60;5.70;;;5.80;99.90;;;;;;5033192;28;20025;-79
2024/03/24 07:51:37;;;;;;;17.37;6.40;;;5.80;99.90;;;;;;5033154;28;20033;-80
2024/03/24 07:54:03;;;;;;;20.93;6.90;;;5.80;99.90;;;;;;5032613;28;20025;-80
2024/03/24 07:56:29;;;;;;;23.97;7.07;;;5.80;99.90;;;;;;5031776;28;20116;-80
2024/03/24 07:58:54;;;;;;;19.80;7.03;;;5.90;99.90;;;;;;5033052;28;20041;-80
2024/03/24 08:01:20;;;;;;;26.77;8.00;;;5.90;99.90;;;;;;5032990;28;20492;-79
2024/03/24 08:03:45;;;;;;;24.53;7.20;;;5.90;99.90;;;;;;5032746;28;20034;-78
2024/03/24 08:06:11;;;;;;;21.27;7.20;;;6.00;99.90;;;;;;5032875;28;20036;-79
2024/03/24 08:08:37;;;;;;;24.23;8.20;;;6.10;99.90;;;;;;5031326;28;20432;-80
2024/03/24 08:11:02;;;;;;;21.33;6.87;;;6.10;99.90;;;;;;5031361;28;20137;-79
2024/03/24 08:13:28;;;;;;;28.73;8.83;;;6.20;99.90;;;;;;5032732;28;20033;-79
2024/03/24 08:15:54;;;;;;;29.90;8.23;;;6.30;99.90;;;;;;5032216;28;20033;-80
2024/03/24 08:18:20;;;;;;;26.77;8.00;;;6.30;99.90;;;;;;5031076;28;20080;-80
2024/03/24 08:20:46;;;;;;;22.70;8.43;;;6.30;99.90;;;;;;5031265;28;20014;-80
2024/03/24 08:23:13;;;;;;;29.70;10.27;;;6.40;99.90;;;;;;5032643;28;20497;-81
2024/03/24 08:25:39;;;;;;;32.30;9.60;;;6.50;99.90;;;;;;5032510;28;20509;-81
2024/03/24 08:28:04;;;;;;;25.00;8.33;;;6.60;99.90;;;;;;5031143;28;20030;-81
2024/03/24 08:30:31;;;;;;;31.03;10.13;;;6.80;99.90;;;;;;5030875;28;20025;-80
2024/03/24 08:32:57;;;;;;;31.40;8.50;;;6.80;99.90;;;;;;5032857;28;20034;-79
2024/03/24 08:35:23;;;;;;;26.73;8.63;;;6.80;99.90;;;;;;5036451;28;20025;-80
2024/03/24 08:37:52;;;;;;;30.50;9.03;;;6.80;99.90;;;;;;5036558;28;20533;-80
2024/03/24 08:40:18;;;;;;;30.70;9.13;;;6.80;99.90;;;;;;5036195;28;20542;-81
2024/03/24 08:42:44;;;;;;;29.33;9.17;;;6.80;99.90;;;;;;5034907;28;20125;-80
2024/03/24 08:45:10;;;;;;;23.67;6.23;;;6.60;99.90;;;;;;5036308;28;20057;-78
2024/03/24 08:47:36;;;;;;;24.63;6.93;;;6.50;99.90;;;;;;5034136;28;20069;-80
2024/03/24 08:50:02;;;;;;;29.33;6.53;;;6.40;99.90;;;;;;5035267;28;20477;-81
2024/03/24 08:52:29;;;;;;;24.83;6.07;;;6.40;99.90;;;;;;5035499;28;20031;-81
2024/03/24 08:54:55;;;;;;;24.87;7.43;;;6.40;99.90;;;;;;5035326;28;20018;-82
2024/03/24 08:57:21;;;;;;;27.47;6.27;;;6.50;99.90;;;;;;5034379;28;20075;-80
2024/03/24 08:59:46;;;;;;;24.73;7.87;;;6.60;99.90;;;;;;5035560;28;20084;-79
2024/03/24 09:02:12;;;;;;;27.63;7.23;;;6.70;99.90;;;;;;5033884;28;20025;-81
2024/03/24 09:04:37;;;;;;;27.07;7.50;;;6.80;99.90;;;;;;5035317;28;20362;-81
2024/03/24 09:07:03;;;;;;;30.20;7.33;;;6.80;99.90;;;;;;5035291;28;20026;-82
2024/03/24 09:09:29;;;;;;;26.97;7.53;;;6.90;99.90;;;;;;5035431;28;20029;-81
2024/03/24 09:11:54;;;;;;;18.27;4.70;;;6.90;99.90;;;;;;5035213;28;20026;-80
2024/03/24 09:14:20;;;;;;;27.37;5.90;;;6.80;99.90;;;;;;5035317;28;20036;-81
2024/03/24 09:16:46;;;;;;;26.80;5.77;;;6.60;99.90;;;;;;5033643;28;20133;-81
2024/03/24 09:19:11;;;;;;;34.77;5.30;;;6.70;99.90;;;;;;5034856;28;20037;-83
2024/03/24 09:21:37;;;;;;;17.77;5.63;;;6.60;99.90;;;;;;5035531;28;20436;-81
2024/03/24 09:24:03;;;;;;;22.97;4.63;;;6.50;99.90;;;;;;5033839;28;20116;-80
2024/03/24 09:26:29;;;;;;;16.33;4.10;;;6.50;99.90;;;;;;5034706;28;20033;-80
2024/03/24 09:28:54;;;;;;;18.03;4.30;;;6.50;99.90;;;;;;5034772;28;20017;-80
2024/03/24 09:31:20;;;;;;;15.73;4.00;;;6.50;99.90;;;;;;5034838;28;20029;-79
2024/03/24 09:33:45;;;;;;;16.50;3.83;;;6.40;99.90;;;;;;5035300;28;20470;-79
2024/03/24 09:36:15;;;;;;;18.47;4.87;;;6.40;99.90;;;;;;5034060;28;20025;-80
2024/03/24 09:38:41;;;;;;;16.13;5.00;;;6.40;99.90;;;;;;5035294;28;20048;-79
2024/03/24 09:41:06;;;;;;;19.47;4.43;;;6.50;99.90;;;;;;5033931;28;20021;-79
2024/03/24 09:43:32;;;;;;;18.37;4.93;;;6.60;99.90;;;;;;5034594;28;20046;-80
2024/03/24 09:45:58;;;;;;;23.03;5.20;;;6.40;99.90;;;;;;5033458;28;20040;-79
2024/03/24 09:48:27;;;;;;;20.13;3.97;;;6.40;99.90;;;;;;5035109;28;20030;-78
2024/03/24 09:50:56;;;;;;;18.67;3.87;;;6.30;99.90;;;;;;5033835;28;20120;-81
2024/03/24 09:53:21;;;;;;;20.63;4.53;;;6.30;99.90;;;;;;5034727;28;20053;-80
2024/03/24 09:55:48;;;;;;;14.83;3.83;;;6.30;99.90;;;;;;5033441;28;20140;-80
2024/03/24 09:58:20;;;;;;;21.30;3.63;;;6.30;99.90;;;;;;5033236;28;20029;-80
2024/03/24 10:00:46;;;;;;;15.43;3.13;;;6.30;99.90;;;;;;5033107;28;20017;-80
2024/03/24 10:03:12;;;;;;;12.13;2.87;;;6.30;99.90;;;;;;5033244;28;20055;-79
2024/03/24 10:05:40;;;;;;;14.63;3.23;;;6.30;99.90;;;;;;5031976;28;20029;-82
2024/03/24 10:08:06;;;;;;;9.50;2.63;;;6.40;99.90;;;;;;5034577;28;20172;-83
2024/03/24 10:10:31;;;;;;;10.90;3.13;;;6.30;99.90;;;;;;5032175;28;20525;-82
2024/03/24 10:12:57;;;;;;;6.70;1.63;;;6.40;99.90;;;;;;5034270;28;20109;-82
2024/03/24 10:15:26;;;;;;;9.03;1.87;;;6.40;99.90;;;;;;5034383;28;20033;-83
2024/03/24 10:18:06;;;;;;;9.80;2.20;;;6.50;99.90;;;;;;5033952;28;20374;-83
2024/03/24 10:20:36;;;;;;;9.97;1.93;;;6.60;99.90;;;;;;5034490;28;20026;-85
2024/03/24 10:23:01;;;;;;;7.00;1.90;;;6.60;99.90;;;;;;5034544;28;20025;-81
2024/03/24 10:25:28;;;;;;;11.87;2.10;;;6.80;99.90;;;;;;5034286;28;20577;-83
2024/03/24 10:27:55;;;;;;;14.23;2.80;;;7.10;99.90;;;;;;5034448;28;20033;-83
2024/03/24 10:30:21;;;;;;;11.93;1.93;;;7.30;99.90;;;;;;5034162;28;20036;-81
2024/03/24 10:32:47;;;;;;;17.43;3.20;;;7.40;99.90;;;;;;5032692;28;20021;-89
2024/03/24 10:35:14;;;;;;;13.67;2.23;;;7.40;99.90;;;;;;5033607;28;20087;-81
2024/03/24 10:37:40;;;;;;;12.87;2.47;;;7.40;99.90;;;;;;5033424;28;20025;-81
2024/03/24 10:40:12;;;;;;;10.03;2.40;;;7.40;99.90;;;;;;5033992;28;20026;-81
2024/03/24 10:42:48;;;;;;;12.73;2.23;;;7.40;99.90;;;;;;5033716;28;20049;-81
2024/03/24 10:45:24;;;;;;;9.17;1.77;;;7.40;99.90;;;;;;5033609;28;20474;-82
2024/03/24 10:47:54;;;;;;;15.67;2.70;;;7.50;99.90;;;;;;5033978;28;20097;-82
2024/03/24 10:50:20;;;;;;;8.03;2.07;;;7.50;99.90;;;;;;5032715;28;20044;-81
2024/03/24 10:52:48;;;;;;;8.03;1.40;;;7.70;99.90;;;;;;5034324;28;20026;-82
2024/03/24 10:55:14;;;;;;;8.30;1.80;;;7.90;99.90;;;;;;5032510;28;20022;-81
2024/03/24 10:57:41;;;;;;;14.83;2.17;;;8.00;99.90;;;;;;5031668;28;20022;-83
2024/03/24 11:00:07;;;;;;;12.50;2.50;;;8.20;99.90;;;;;;5034088;28;20172;-82
2024/03/24 11:02:33;;;;;;;9.37;1.60;;;8.30;99.90;;;;;;5033819;28;20358;-81
2024/03/24 11:05:01;;;;;;;14.13;2.50;;;8.30;99.90;;;;;;5034138;28;20104;-80
2024/03/24 11:07:28;;;;;;;9.83;1.80;;;8.30;99.90;;;;;;5033969;28;20036;-83
2024/03/24 11:09:55;;;;;;;9.23;1.67;;;8.30;99.90;;;;;;5032481;28;20136;-81
2024/03/24 11:12:21;;;;;;;12.60;2.30;;;8.30;99.90;;;;;;5033013;28;20034;-81
2024/03/24 11:14:46;;;;;;;13.67;3.30;;;8.60;99.90;;;;;;5033693;28;20029;-82
2024/03/24 11:17:12;;;;;;;13.02;2.22;;;9.00;99.90;;;;;;5033263;28;20028;-80
2024/03/24 11:20:01;;;;;;;9.23;2.58;;;9.10;99.90;;;;;;5032608;28;20025;-81
2024/03/24 11:22:43;;;;;;;13.52;2.38;;;9.30;99.90;;;;;;5033260;28;20021;-84
2024/03/24 11:25:09;;;;;;;10.88;1.67;;;9.80;99.90;;;;;;5033527;28;20033;-80
2024/03/24 11:27:39;;;;;;;14.57;2.33;;;10.30;99.90;;;;;;5033189;28;20500;-83
2024/03/24 11:30:05;;;;;;;13.10;1.95;;;11.10;99.90;;;;;;5032297;28;20105;-81
2024/03/24 11:32:59;;;;;;;12.15;1.50;;;11.40;99.90;;;;;;5031733;28;20033;-86
2024/03/24 11:35:26;;;;;;;10.52;1.95;;;11.90;99.90;;;;;;5032040;28;20044;-82
2024/03/24 11:37:53;;;;;;;7.80;1.58;;;12.40;99.90;;;;;;5032614;28;20087;-80
2024/03/24 11:40:20;;;;;;;11.65;1.90;;;12.30;99.90;;;;;;5032732;28;20026;-82
2024/03/24 11:42:45;;;;;;;12.80;1.58;;;12.00;99.90;;;;;;5032481;28;20037;-81
2024/03/24 11:45:30;;;;;;;11.13;1.70;;;11.60;99.90;;;;;;5030947;28;20032;-80
2024/03/24 11:48:21;;;;;;;14.98;1.67;;;11.20;99.90;;;;;;5013143;28;20022;-82
2024/03/24 11:50:47;;;;;;;11.80;1.80;;;10.80;99.90;;;;;;5013392;28;20383;-81
2024/03/24 11:53:13;;;;;;;9.05;1.88;;;10.60;99.90;;;;;;5012121;28;20018;-82
2024/03/24 11:55:39;;;;;;;16.88;2.47;;;10.30;99.90;;;;;;5012930;28;20030;-79
2024/03/24 11:58:05;;;;;;;15.93;2.55;;;10.10;99.90;;;;;;5013696;28;20026;-82
2024/03/24 12:00:32;;;;;;;12.10;2.15;;;9.80;99.90;;;;;;5013273;28;20478;-81
2024/03/24 12:02:58;;;;;;;12.43;2.10;;;9.50;99.90;;;;;;5013199;28;20100;-81
2024/03/24 12:05:24;;;;;;;12.60;1.60;;;9.30;99.90;;;;;;5013001;28;20490;-81
2024/03/24 12:07:50;;;;;;;11.53;1.87;;;9.20;99.90;;;;;;5012242;28;20122;-78
2024/03/24 12:10:16;;;;;;;8.73;1.60;;;9.10;99.90;;;;;;5015769;28;20026;-81
2024/03/24 12:12:42;;;;;;;12.23;1.77;;;8.90;99.90;;;;;;5017012;28;20544;-79
2024/03/24 12:15:09;;;;;;;11.27;1.93;;;8.90;99.90;;;;;;5017127;28;20037;-79
2024/03/24 12:17:35;;;;;;;11.87;1.50;;;8.90;99.90;;;;;;5015661;28;20096;-83
2024/03/24 12:20:04;;;;;;;9.77;1.60;;;9.00;99.90;;;;;;5025131;28;20038;-82
2024/03/24 12:22:31;;;;;;;12.43;1.80;;;9.00;99.90;;;;;;5035021;28;20063;-81
2024/03/24 12:24:57;;;;;;;13.32;2.38;;;9.40;99.90;;;;;;5036318;28;20036;-82
2024/03/24 12:27:22;;;;;;;11.13;1.40;;;10.00;99.90;;;;;;5037153;28;20029;-81
2024/03/24 12:29:56;;;;;;;6.60;1.20;;;10.70;99.90;;;;;;5036119;28;20021;-82
2024/03/24 12:32:25;;;;;;;;;;;11.40;99.90;;;;;;5034106;28;20084;-80
2024/03/24 12:34:51;;;;;;;6.82;1.17;;;12.00;99.90;;;;;;5036074;28;19912;-81
2024/03/24 12:37:19;;;;;;;4.68;0.73;;;12.90;99.90;;;;;;5035184;28;20025;-79
2024/03/24 12:39:51;;;;;;;8.93;1.30;;;13.60;98.80;;;;;;5034958;28;20056;-78
2024/03/24 12:42:17;;;;;;;7.45;1.38;;;14.10;95.30;;;;;;5035886;28;20046;-80
2024/03/24 12:44:43;;;;;;;6.60;0.95;;;14.20;90.80;;;;;;5034516;28;20052;-81
2024/03/24 12:47:11;;;;;;;8.15;1.35;;;14.20;90.30;;;;;;5036127;28;20056;-80